Time;durP1;ratioP1;P1;durP2;ratioP2;P2;SDS_P1;SDS_P2;PMS_P1;PMS_P2;Temp;Humidity;BMP_temperature;BMP_pressure;BME280_temperature;BME280_humidity;BME280_pressure;Samples;Min_cycle;Max_cycle;Signal;HPM_P1;HPM_P2
2023/04/07 00:00:41;;;;;;;;;2.00;2.00;;;;;12.58;47.12;101237.91;5061758;28;45248;-67
2023/04/07 00:03:07;;;;;;;;;5.00;3.50;;;;;12.56;47.14;101236.19;5061418;28;45486;-67
2023/04/07 00:05:33;;;;;;;;;1.00;1.00;;;;;12.52;46.60;101233.59;5061045;28;46401;-67
2023/04/07 00:07:58;;;;;;;;;3.00;2.00;;;;;12.50;47.39;101237.16;5061281;28;45140;-67
2023/04/07 00:10:24;;;;;;;;;3.00;2.50;;;;;12.47;47.55;101235.44;5061340;28;45203;-67
2023/04/07 00:12:49;;;;;;;;;3.25;2.50;;;;;12.42;47.53;101228.50;5059982;28;45287;-67
2023/04/07 00:15:14;;;;;;;;;3.00;3.00;;;;;12.41;47.56;101234.66;5076735;27;47024;-67
2023/04/07 00:17:40;;;;;;;;;2.75;1.75;;;;;12.40;47.55;101238.16;5064844;28;45271;-67
2023/04/07 00:20:06;;;;;;;;;3.00;1.75;;;;;12.38;47.89;101226.78;5060654;28;45795;-67
2023/04/07 00:22:31;;;;;;;;;1.50;1.50;;;;;12.37;47.78;101230.31;5061315;28;45459;-68
2023/04/07 00:24:56;;;;;;;;;1.50;1.00;;;;;12.35;47.81;101230.31;5060914;28;46862;-67
2023/04/07 00:27:22;;;;;;;;;1.75;1.75;;;;;12.28;48.13;101219.00;5059829;28;45189;-67
2023/04/07 00:29:47;;;;;;;;;2.00;2.00;;;;;12.30;48.00;101235.69;5061111;28;45454;-67
2023/04/07 00:32:12;;;;;;;;;3.25;3.00;;;;;12.27;48.09;101226.94;5060935;28;45434;-67
2023/04/07 00:34:38;;;;;;;;;6.00;2.00;;;;;12.23;48.09;101228.75;5060597;28;45370;-67
2023/04/07 00:37:05;;;;;;;;;2.00;2.00;;;;;12.22;47.97;101224.34;5059859;28;45375;-67
2023/04/07 00:39:31;;;;;;;;;3.00;1.00;;;;;12.17;48.34;101221.78;5060841;28;45596;-67
2023/04/07 00:41:57;;;;;;;;;3.00;2.75;;;;;12.18;48.35;101220.88;5060545;28;45523;-67
2023/04/07 00:44:22;;;;;;;;;4.00;2.00;;;;;12.17;48.05;101216.50;5060413;28;45288;-67
2023/04/07 00:46:48;;;;;;;;;3.50;2.00;;;;;12.15;48.18;101220.94;5060868;28;45472;-67
2023/04/07 00:49:16;;;;;;;;;3.00;2.50;;;;;12.14;48.19;101213.91;5061548;28;45442;-67
2023/04/07 00:51:42;;;;;;;;;3.50;2.75;;;;;12.13;48.31;101220.06;5061324;28;45492;-67
2023/04/07 00:54:09;;;;;;;;;3.50;2.00;;;;;12.11;48.33;101206.06;5076036;28;47039;-67
2023/04/07 00:56:34;;;;;;;;;2.25;2.25;;;;;12.09;48.36;101206.94;5060656;28;45395;-67
2023/04/07 00:59:00;;;;;;;;;3.00;1.00;;;;;12.06;48.28;101201.75;5060380;28;45383;-67
2023/04/07 01:01:35;;;;;;;;;8.50;4.25;;;;;12.07;48.46;101208.75;5060706;28;45490;-67
2023/04/07 01:04:07;;;;;;;;;5.75;2.75;;;;;12.01;48.23;101200.03;5060351;28;47267;-67
2023/04/07 01:06:39;;;;;;;;;4.50;2.75;;;;;12.03;48.45;101211.41;5060481;27;45599;-67
2023/04/07 01:09:20;;;;;;;;;3.50;2.00;;;;;12.01;48.39;101201.78;5059152;28;45270;-67
2023/04/07 01:11:48;;;;;;;;;2.75;2.00;;;;;12.03;48.36;101205.28;5060292;28;45315;-67
2023/04/07 01:14:17;;;;;;;;;1.75;1.75;;;;;12.01;48.50;101202.69;5060390;28;45295;-67
2023/04/07 01:16:49;;;;;;;;;2.75;1.75;;;;;12.01;48.47;101207.94;5060377;28;45181;-67
2023/04/07 01:19:32;;;;;;;;;7.75;2.50;;;;;12.01;48.55;101210.59;5059985;28;45329;-67
2023/04/07 01:21:59;;;;;;;;;6.00;4.75;;;;;12.00;48.53;101200.06;5058955;28;45334;-67
2023/04/07 01:24:41;;;;;;;;;12.50;11.50;;;;;12.00;48.55;101203.56;5060090;28;45365;-67
2023/04/07 01:27:44;;;;;;;;;7.50;3.00;;;;;11.97;48.55;101208.84;5049780;28;45475;-67
2023/04/07 01:30:12;;;;;;;;;11.00;7.50;;;;;11.95;48.75;101196.56;5056460;28;45468;-67
2023/04/07 01:32:40;;;;;;;;;7.75;6.25;;;;;11.93;48.85;101201.00;5056069;28;45556;-67
2023/04/07 01:35:11;;;;;;;;;5.75;3.75;;;;;11.89;48.86;101200.16;5056017;28;46117;-67
2023/04/07 01:37:37;;;;;;;;;3.00;3.00;;;;;11.90;48.77;101195.75;5056107;28;45465;-67
2023/04/07 01:40:06;;;;;;;;;8.75;3.50;;;;;11.89;49.07;101202.78;5058030;28;45453;-67
2023/04/07 01:42:32;;;;;;;;;8.25;4.00;;;;;11.87;48.82;101207.19;5055852;28;45843;-67
2023/04/07 01:45:00;;;;;;;;;2.75;2.75;;;;;11.87;48.89;101199.28;5056287;28;45394;-67
2023/04/07 01:47:29;;;;;;;;;5.25;3.75;;;;;11.86;49.06;101208.97;5055718;28;45487;-67
2023/04/07 01:49:57;;;;;;;;;6.25;3.25;;;;;11.85;49.01;101212.50;5058751;28;45312;-67
2023/04/07 01:52:23;;;;;;;;;4.25;2.00;;;;;11.83;49.20;101216.03;5059367;28;45841;-67
2023/04/07 01:54:48;;;;;;;;;3.25;3.00;;;;;11.81;49.28;101212.53;5075175;28;46966;-67
2023/04/07 01:57:14;;;;;;;;;2.50;1.75;;;;;11.79;49.40;101215.19;5059701;28;45393;-67
2023/04/07 01:59:39;;;;;;;;;3.75;2.00;;;;;11.78;49.40;101209.94;5061023;28;45579;-67
2023/04/07 02:02:05;;;;;;;;;4.25;3.00;;;;;11.76;49.09;101206.44;5062329;28;45402;-67
2023/04/07 02:04:42;;;;;;;;;4.00;4.00;;;;;11.75;49.34;101215.25;5062420;28;45457;-67
2023/04/07 02:07:17;;;;;;;;;4.75;3.00;;;;;11.73;49.31;101215.25;5062724;28;46544;-67
2023/04/07 02:09:44;;;;;;;;;9.50;4.75;;;;;11.75;49.37;101210.88;5062568;28;45326;-67
2023/04/07 02:12:13;;;;;;;;;3.25;3.00;;;;;11.75;49.48;101207.34;5063199;28;45380;-67
2023/04/07 02:14:39;;;;;;;;;5.75;4.00;;;;;11.76;49.41;101214.34;5078636;28;47233;-67
2023/04/07 02:17:04;;;;;;;;;4.25;4.25;;;;;11.76;49.42;101215.25;5062814;28;45398;-67
2023/04/07 02:19:33;;;;;;;;;5.50;4.75;;;;;11.76;49.45;101217.88;5062781;28;45348;-67
2023/04/07 02:22:01;;;;;;;;;5.25;2.50;;;;;11.77;49.50;101216.09;5063096;28;45181;-67
2023/04/07 02:24:26;;;;;;;;;4.50;3.50;;;;;11.76;49.33;101215.25;5061827;28;45258;-67
2023/04/07 02:26:52;;;;;;;;;6.50;5.00;;;;;11.77;49.47;101209.06;5062903;28;45284;-67
2023/04/07 02:29:17;;;;;;;;;3.00;3.00;;;;;11.78;49.53;101217.84;5063046;28;45221;-67
2023/04/07 02:31:42;;;;;;;;;2.00;2.00;;;;;11.78;49.53;101212.59;5062874;28;45238;-67
2023/04/07 02:34:08;;;;;;;;;5.75;4.75;;;;;11.80;49.57;101219.56;5062669;28;45288;-67
2023/04/07 02:36:33;;;;;;;;;3.50;3.50;;;;;11.81;49.61;101220.44;5078970;28;45421;-67
2023/04/07 02:38:58;;;;;;;;;3.00;1.00;;;;;11.81;49.18;101209.91;5063204;28;45244;-67
2023/04/07 02:41:25;;;;;;;;;3.00;2.50;;;;;11.82;49.67;101219.56;5061375;28;45520;-67
2023/04/07 02:43:50;;;;;;;;;7.00;4.00;;;;;11.83;49.48;101213.41;5062467;28;45932;-67
2023/04/07 02:46:15;;;;;;;;;7.50;5.00;;;;;11.83;49.61;101216.88;5061352;28;45457;-67
2023/04/07 02:48:41;;;;;;;;;6.50;4.00;;;;;11.82;49.74;101214.28;5062524;28;45319;-67
2023/04/07 02:51:06;;;;;;;;;5.50;5.00;;;;;11.81;49.36;101205.53;5062685;28;45306;-67
2023/04/07 02:53:31;;;;;;;;;6.50;4.00;;;;;11.84;49.45;101209.88;5061291;28;45441;-67
2023/04/07 02:55:57;;;;;;;;;4.00;4.00;;;;;11.86;49.80;101205.44;5062264;28;50024;-67
2023/04/07 02:58:23;;;;;;;;;4.25;4.00;;;;;11.85;49.72;101196.69;5078283;28;45358;-67
2023/04/07 03:00:48;;;;;;;;;8.50;6.75;;;;;11.88;49.96;101193.16;5061381;28;45186;-67
2023/04/07 03:03:14;;;;;;;;;8.75;7.75;;;;;11.87;49.83;101194.03;5062265;28;45318;-67
2023/04/07 03:05:39;;;;;;;;;9.25;7.25;;;;;11.85;49.96;101194.06;5062573;28;45422;-67
2023/04/07 03:08:05;;;;;;;;;6.75;6.00;;;;;11.86;49.88;101200.19;5062579;28;45292;-67
2023/04/07 03:10:30;;;;;;;;;4.75;4.75;;;;;11.84;50.05;101194.09;5062143;28;45364;-67
2023/04/07 03:12:56;;;;;;;;;9.50;8.50;;;;;11.85;49.93;101203.72;5060861;28;46047;-67
2023/04/07 03:15:21;;;;;;;;;8.00;7.00;;;;;11.82;50.34;101199.38;5062167;28;45445;-67
2023/04/07 03:17:47;;;;;;;;;15.75;11.00;;;;;11.81;50.21;101188.84;5062123;28;45598;-67
2023/04/07 03:20:12;;;;;;;;;40.25;24.75;;;;;11.80;50.06;101189.75;5060189;28;45510;-67
2023/04/07 03:22:37;;;;;;;;;7.50;5.50;;;;;11.80;50.05;101189.75;5062142;28;46376;-67
2023/04/07 03:25:03;;;;;;;;;8.50;5.50;;;;;11.80;50.13;101192.38;5061921;28;45221;-67
2023/04/07 03:27:29;;;;;;;;;10.00;8.00;;;;;11.77;50.38;101185.38;5062175;28;45383;-67
2023/04/07 03:29:55;;;;;;;;;7.50;6.50;;;;;11.75;50.25;101186.28;5061801;28;45327;-67
2023/04/07 03:32:20;;;;;;;;;6.00;6.00;;;;;11.73;50.18;101196.84;5061908;28;45928;-67
2023/04/07 03:34:45;;;;;;;;;10.25;7.00;;;;;11.70;50.46;101195.09;5061619;28;45323;-67
2023/04/07 03:37:11;;;;;;;;;8.25;5.75;;;;;11.68;50.22;101196.91;5062254;28;45444;-67
2023/04/07 03:39:36;;;;;;;;;8.00;7.00;;;;;11.65;50.28;101196.94;5061878;28;45392;-67
2023/04/07 03:42:02;;;;;;;;;7.75;6.00;;;;;11.65;50.26;101199.56;5061973;28;45337;-67
2023/04/07 03:44:28;;;;;;;;;5.00;1.75;;;;;11.62;50.33;101202.25;5061766;28;45376;-67
2023/04/07 03:46:53;;;;;;;;;5.75;4.25;;;;;11.59;50.45;101199.63;5061813;28;45410;-67
2023/04/07 03:49:18;;;;;;;;;30.25;27.50;;;;;11.61;50.39;101204.88;5061402;28;45496;-67
2023/04/07 03:51:44;;;;;;;;;9.50;6.25;;;;;11.58;50.31;101211.03;5060149;28;46842;-67
2023/04/07 03:54:09;;;;;;;;;8.25;6.00;;;;;11.58;50.25;101204.91;5061451;28;45228;-67
2023/04/07 03:56:36;;;;;;;;;8.25;5.00;;;;;11.55;50.25;101205.81;5061789;28;46383;-67
2023/04/07 03:59:01;;;;;;;;;6.00;4.50;;;;;11.55;50.28;101203.19;5061568;28;45526;-66
2023/04/07 04:01:27;;;;;;;;;8.75;5.75;;;;;11.54;50.29;101204.94;5061446;28;45239;-66
2023/04/07 04:03:52;;;;;;;;;5.00;3.75;;;;;11.52;50.33;101206.72;5059925;28;45245;-67
2023/04/07 04:06:17;;;;;;;;;4.00;3.00;;;;;11.50;50.29;101197.09;5061608;28;45453;-67
2023/04/07 04:08:43;;;;;;;;;5.00;3.75;;;;;11.48;50.34;101199.75;5061256;28;45477;-67
2023/04/07 04:11:08;;;;;;;;;5.50;4.75;;;;;11.46;50.40;101208.53;5060941;28;45524;-67
2023/04/07 04:13:33;;;;;;;;;7.50;5.00;;;;;11.43;50.37;101200.69;5061219;28;45461;-67
2023/04/07 04:15:59;;;;;;;;;6.00;5.00;;;;;11.43;50.31;101217.31;5077041;28;45306;-67
2023/04/07 04:18:24;;;;;;;;;6.25;4.00;;;;;11.41;50.36;101208.59;5059689;28;45415;-67
2023/04/07 04:20:49;;;;;;;;;6.25;2.75;;;;;11.40;50.48;101211.25;5061008;28;45420;-67
2023/04/07 04:23:15;;;;;;;;;6.00;4.75;;;;;11.37;50.38;101210.38;5061309;28;45328;-67
2023/04/07 04:25:40;;;;;;;;;5.50;4.50;;;;;11.34;50.40;101218.28;5061745;28;45295;-66
2023/04/07 04:28:06;;;;;;;;;10.75;7.00;;;;;11.32;50.67;101219.19;5061245;28;45339;-66
2023/04/07 04:30:31;;;;;;;;;4.00;4.00;;;;;11.31;50.46;101228.84;5061076;28;45305;-67
2023/04/07 04:32:57;;;;;;;;;4.00;4.00;;;;;11.30;50.52;101232.38;5060821;28;45307;-67
2023/04/07 04:35:22;;;;;;;;;6.00;4.75;;;;;11.29;50.59;101230.63;5060963;28;45244;-67
2023/04/07 04:37:48;;;;;;;;;7.25;6.25;;;;;11.29;50.55;101230.63;5076361;28;53516;-68
2023/04/07 04:40:13;;;;;;;;;5.00;4.75;;;;;11.29;50.64;101232.41;5060893;28;46099;-67
2023/04/07 04:42:39;;;;;;;;;11.50;7.75;;;;;11.27;50.51;101235.03;5060793;28;45230;-68
2023/04/07 04:45:05;;;;;;;;;3.00;3.00;;;;;11.26;50.62;101235.03;5061431;28;45272;-68
2023/04/07 04:47:30;;;;;;;;;6.75;5.50;;;;;11.26;51.21;101235.03;5059837;28;45591;-67
2023/04/07 04:49:56;;;;;;;;;10.25;8.25;;;;;11.26;50.70;101235.94;5060488;28;46141;-67
2023/04/07 04:52:21;;;;;;;;;15.25;11.25;;;;;11.26;50.70;101241.19;5060752;28;45295;-67
2023/04/07 04:54:46;;;;;;;;;9.25;5.75;;;;;11.25;50.45;101238.56;5076459;28;45631;-67
2023/04/07 04:57:12;;;;;;;;;9.00;6.75;;;;;11.26;50.46;101245.56;5060583;28;45506;-68
2023/04/07 04:59:38;;;;;;;;;6.75;4.00;;;;;11.24;50.71;101236.81;5039522;28;52253;-68
2023/04/07 05:02:04;;;;;;;;;7.00;6.50;;;;;11.21;50.27;101240.34;5056845;28;45415;-67
2023/04/07 05:04:29;;;;;;;;;9.50;5.75;;;;;11.18;50.63;101237.75;5072641;27;45519;-68
2023/04/07 05:06:55;;;;;;;;;9.25;6.50;;;;;11.20;50.68;101243.88;5072723;28;45395;-68
2023/04/07 05:09:20;;;;;;;;;5.50;4.75;;;;;11.19;50.87;101248.28;5056590;28;45497;-68
2023/04/07 05:11:46;;;;;;;;;8.25;6.00;;;;;11.19;50.74;101250.00;5071277;28;45533;-70
2023/04/07 05:14:11;;;;;;;;;9.25;8.00;;;;;11.18;50.53;101251.78;5056229;28;45532;-63
2023/04/07 05:16:44;;;;;;;;;7.00;7.00;;;;;11.16;50.87;101250.91;5056737;28;45653;-77
2023/04/07 05:19:09;;;;;;;;;7.75;6.75;;;;;11.17;51.25;101246.50;5065535;28;46804;-74
2023/04/07 05:21:37;;;;;;;;;9.00;6.75;;;;;11.17;50.70;101257.94;5056610;28;45441;-68
2023/04/07 05:24:03;;;;;;;;;11.50;6.75;;;;;11.18;50.67;101243.00;5054536;28;45544;-69
2023/04/07 05:26:28;;;;;;;;;11.50;7.50;;;;;11.16;50.84;101250.06;5055499;28;45923;-69
2023/04/07 05:28:54;;;;;;;;;9.75;9.00;;;;;11.14;50.70;101242.16;5053995;28;45435;-62
2023/04/07 05:31:19;;;;;;;;;10.00;6.75;;;;;11.13;50.77;101234.28;5052147;28;45394;-69
2023/04/07 05:33:45;;;;;;;;;11.75;8.50;;;;;11.07;50.25;101229.97;5057699;28;45487;-67
2023/04/07 05:36:10;;;;;;;;;8.00;6.75;;;;;11.10;50.75;101239.59;5058480;28;45425;-66
2023/04/07 05:38:35;;;;;;;;;13.25;7.00;;;;;11.06;50.83;101244.00;5051571;28;45491;-69
2023/04/07 05:41:01;;;;;;;;;10.50;6.50;;;;;11.06;50.73;101242.22;5058003;28;47296;-71
2023/04/07 05:43:26;;;;;;;;;8.75;8.25;;;;;11.05;50.75;101251.00;5059465;28;46789;-71
2023/04/07 05:45:51;;;;;;;;;7.50;6.75;;;;;11.03;50.96;101252.78;5060096;28;45174;-70
2023/04/07 05:48:17;;;;;;;;;11.00;9.25;;;;;11.01;50.92;101254.53;5060112;28;45386;-73
2023/04/07 05:50:42;;;;;;;;;11.00;9.25;;;;;11.03;50.82;101254.53;5058732;28;45634;-75
2023/04/07 05:53:07;;;;;;;;;9.25;9.25;;;;;11.01;50.86;101257.16;5058446;28;45462;-68
2023/04/07 05:55:33;;;;;;;;;14.75;10.50;;;;;11.00;51.16;101263.31;5057367;28;45584;-68
2023/04/07 05:57:58;;;;;;;;;11.50;9.50;;;;;11.00;50.91;101265.06;5059002;27;45566;-66
2023/04/07 06:00:24;;;;;;;;;11.75;10.25;;;;;10.99;50.92;101269.47;5059138;28;45302;-67
2023/04/07 06:02:49;;;;;;;;;11.00;10.00;;;;;10.95;50.87;101256.34;5059374;28;45358;-68
2023/04/07 06:05:15;;;;;;;;;12.50;11.00;;;;;10.97;51.13;101263.34;5059886;28;45279;-69
2023/04/07 06:07:40;;;;;;;;;10.00;8.75;;;;;11.00;51.04;101270.34;5059397;28;46912;-72
2023/04/07 06:10:06;;;;;;;;;14.50;14.00;;;;;10.99;51.07;101277.38;5074823;28;45347;-60
2023/04/07 06:12:32;;;;;;;;;12.25;11.00;;;;;11.00;51.13;101270.34;5059884;28;45268;-69
2023/04/07 06:14:57;;;;;;;;;15.50;10.50;;;;;11.01;51.06;101274.72;5059248;28;45321;-71
2023/04/07 06:17:22;;;;;;;;;11.75;9.00;;;;;11.03;51.31;101276.44;5059099;28;45232;-71
2023/04/07 06:19:48;;;;;;;;;12.00;11.50;;;;;11.03;51.08;101281.72;5058788;28;45468;-70
2023/04/07 06:22:13;;;;;;;;;8.50;6.50;;;;;11.05;51.10;101282.56;5059236;28;45683;-69
2023/04/07 06:24:38;;;;;;;;;14.00;9.25;;;;;11.06;50.98;101275.56;5052883;28;45327;-70
2023/04/07 06:27:04;;;;;;;;;12.50;12.00;;;;;11.06;51.14;101284.31;5059010;28;45298;-70
2023/04/07 06:29:31;;;;;;;;;13.50;10.75;;;;;11.04;51.06;101279.94;5053046;28;45392;-66
2023/04/07 06:31:56;;;;;;;;;14.75;12.25;;;;;11.07;50.94;101290.47;5057744;28;45242;-67
2023/04/07 06:34:22;;;;;;;;;15.50;13.00;;;;;11.08;51.04;101293.94;5059166;28;45301;-68
2023/04/07 06:36:47;;;;;;;;;12.50;10.50;;;;;11.08;51.05;101305.34;5062008;28;58668;-68
2023/04/07 06:39:12;;;;;;;;;14.75;12.50;;;;;11.09;51.25;101301.81;5094995;27;45188;-68
2023/04/07 06:41:38;;;;;;;;;13.50;9.25;;;;;11.11;51.18;101307.94;5063108;28;45158;-68
2023/04/07 06:44:04;;;;;;;;;18.50;12.00;;;;;11.11;51.18;101309.72;5062589;28;45378;-68
2023/04/07 06:46:29;;;;;;;;;15.50;13.75;;;;;11.10;51.17;101319.34;5062724;28;46174;-68
2023/04/07 06:48:55;;;;;;;;;16.75;11.75;;;;;11.11;51.34;101320.25;5062176;28;45318;-68
2023/04/07 06:51:20;;;;;;;;;18.50;12.75;;;;;11.13;51.24;101321.09;5062799;28;45316;-68
2023/04/07 06:53:47;;;;;;;;;13.75;13.75;;;;;11.15;51.27;101324.59;5062572;28;45305;-68
2023/04/07 06:56:13;;;;;;;;;11.75;11.25;;;;;11.16;51.33;101323.72;5062382;28;47171;-68
2023/04/07 06:58:38;;;;;;;;;11.75;10.50;;;;;11.17;51.23;101334.22;5062190;28;45269;-68
2023/04/07 07:01:05;;;;;;;;;15.00;8.50;;;;;11.18;51.29;101330.69;5062823;28;45227;-68
2023/04/07 07:03:30;;;;;;;;;14.25;12.50;;;;;11.18;51.48;101328.06;5062217;28;45311;-68
2023/04/07 07:05:57;;;;;;;;;18.50;10.50;;;;;11.20;51.34;101335.94;5062148;28;45311;-68
2023/04/07 07:08:23;;;;;;;;;15.75;14.00;;;;;11.19;51.48;101342.09;5062374;28;45257;-68
2023/04/07 07:10:48;;;;;;;;;18.00;12.75;;;;;11.21;51.32;101335.94;5062343;28;45275;-68
2023/04/07 07:13:14;;;;;;;;;14.25;12.25;;;;;11.23;51.22;101341.16;5061989;28;45326;-68
2023/04/07 07:15:40;;;;;;;;;12.00;10.50;;;;;11.24;51.37;101342.91;5062113;28;46063;-68
2023/04/07 07:18:05;;;;;;;;;14.75;14.25;;;;;11.24;51.29;101342.91;5061676;28;45288;-67
2023/04/07 07:20:30;;;;;;;;;15.75;13.50;;;;;11.28;51.35;101351.66;5061872;28;46774;-68
2023/04/07 07:22:55;;;;;;;;;14.25;13.50;;;;;11.30;51.33;101347.28;5062099;28;45448;-68
2023/04/07 07:25:21;;;;;;;;;17.75;13.00;;;;;11.31;51.17;101347.25;5059515;28;46130;-68
2023/04/07 07:27:50;;;;;;;;;23.25;17.00;;;;;11.35;51.33;101348.97;5053704;28;45362;-68
2023/04/07 07:30:16;;;;;;;;;13.75;12.00;;;;;11.36;51.23;101345.47;5062203;28;45497;-68
2023/04/07 07:32:41;;;;;;;;;16.25;15.00;;;;;11.42;51.30;101351.56;5061729;28;45279;-68
2023/04/07 07:35:07;;;;;;;;;16.75;13.50;;;;;11.43;51.20;101348.91;5063196;28;45970;-67
2023/04/07 07:37:32;;;;;;;;;16.25;13.75;;;;;11.44;51.19;101350.66;5069133;27;45249;-67
2023/04/07 07:39:57;;;;;;;;;18.50;15.25;;;;;11.48;51.27;101356.78;5059504;28;45347;-67
2023/04/07 07:42:22;;;;;;;;;20.00;16.25;;;;;11.49;51.39;101348.00;5069762;28;45981;-68
2023/04/07 07:44:48;;;;;;;;;25.50;19.00;;;;;11.53;51.32;101355.88;5061457;28;46085;-67
2023/04/07 07:47:13;;;;;;;;;25.00;20.25;;;;;11.55;51.32;101351.44;5061162;28;45448;-67
2023/04/07 07:49:38;;;;;;;;;17.00;12.75;;;;;11.57;51.34;101355.84;5061648;28;45376;-68
2023/04/07 07:52:04;;;;;;;;;15.00;13.50;;;;;11.54;51.19;101349.69;5061673;28;45753;-67
2023/04/07 07:54:29;;;;;;;;;14.00;12.25;;;;;11.61;51.26;101357.53;5061492;28;46361;-67
2023/04/07 07:56:55;;;;;;;;;17.50;15.00;;;;;11.62;51.41;101362.81;5077607;28;45321;-67
2023/04/07 07:59:20;;;;;;;;;19.25;14.00;;;;;11.66;51.39;101361.91;5061657;28;45282;-67
2023/04/07 08:01:45;;;;;;;;;19.25;18.25;;;;;11.70;51.12;101360.97;5060312;28;45312;-68
2023/04/07 08:04:11;;;;;;;;;23.25;17.50;;;;;11.74;51.46;101360.97;5061059;28;46199;-67
2023/04/07 08:06:36;;;;;;;;;19.75;16.00;;;;;11.79;51.32;101362.66;5061428;28;45347;-68
2023/04/07 08:09:02;;;;;;;;;16.00;15.00;;;;;11.70;51.22;101344.31;5061176;28;45295;-67
2023/04/07 08:11:27;;;;;;;;;12.50;11.00;;;;;11.86;51.21;101363.47;5061307;28;45504;-68
2023/04/07 08:13:55;;;;;;;;;20.75;18.00;;;;;11.91;51.31;101366.94;5060941;28;45336;-68
2023/04/07 08:16:22;;;;;;;;;14.00;13.75;;;;;11.92;51.33;101360.75;5061477;28;45228;-67
2023/04/07 08:18:47;;;;;;;;;17.50;16.50;;;;;11.96;51.62;101375.72;5060769;28;45360;-67
2023/04/07 08:21:13;;;;;;;;;17.00;16.00;;;;;12.00;51.24;101373.91;5061281;28;45594;-67
2023/04/07 08:23:38;;;;;;;;;20.50;16.75;;;;;12.05;51.22;101379.13;5060816;28;45290;-66
2023/04/07 08:26:07;;;;;;;;;27.25;19.50;;;;;12.00;51.14;101366.88;5061180;28;45442;-68
2023/04/07 08:28:32;;;;;;;;;17.00;15.50;;;;;12.12;51.02;101375.53;5061108;28;45330;-67
2023/04/07 08:30:57;;;;;;;;;18.75;17.25;;;;;12.16;51.26;101374.59;5060724;28;45350;-72
2023/04/07 08:33:23;;;;;;;;;14.50;14.50;;;;;12.20;51.18;101368.44;5060376;28;46213;-69
2023/04/07 08:35:48;;;;;;;;;18.25;16.50;;;;;12.21;51.21;101364.88;5060711;28;45271;-68
2023/04/07 08:38:14;;;;;;;;;14.75;12.75;;;;;12.28;51.12;101370.97;5061179;28;45195;-73
2023/04/07 08:40:39;;;;;;;;;20.75;19.25;;;;;12.31;51.05;101377.09;5060627;28;45418;-68
2023/04/07 08:43:08;;;;;;;;;21.50;16.50;;;;;12.36;51.07;101369.13;5060957;28;45433;-68
2023/04/07 08:45:38;;;;;;;;;20.50;19.00;;;;;12.43;51.12;101375.22;5060723;28;45418;-68
2023/04/07 08:48:14;;;;;;;;;20.75;18.25;;;;;12.47;51.09;101371.63;5059638;28;45470;-68
2023/04/07 08:50:43;;;;;;;;;17.50;15.00;;;;;12.53;51.09;101376.84;5060624;28;45443;-67
2023/04/07 08:53:13;;;;;;;;;19.50;15.25;;;;;12.59;51.03;101376.75;5060513;28;47774;-67
2023/04/07 08:55:39;;;;;;;;;21.75;19.00;;;;;12.65;51.10;101376.69;5060339;28;45458;-67
2023/04/07 08:58:05;;;;;;;;;19.00;18.25;;;;;12.72;50.90;101376.63;5059581;28;45273;-67
2023/04/07 09:00:30;;;;;;;;;17.00;10.75;;;;;12.78;51.43;101387.06;5060644;28;45239;-67
2023/04/07 09:02:59;;;;;;;;;23.00;17.75;;;;;12.84;51.17;101392.25;5060181;28;45304;-67
2023/04/07 09:05:25;;;;;;;;;18.00;16.00;;;;;12.89;51.04;101384.28;5060403;28;45405;-67
2023/04/07 09:07:50;;;;;;;;;20.75;18.00;;;;;12.94;51.12;101375.44;5059293;28;45488;-67
2023/04/07 09:10:16;;;;;;;;;23.50;21.25;;;;;13.01;51.20;101378.84;5060282;28;45341;-67
2023/04/07 09:12:42;;;;;;;;;26.75;23.25;;;;;13.10;50.99;101389.25;5060196;28;46148;-68
2023/04/07 09:15:07;;;;;;;;;21.50;17.25;;;;;13.18;51.01;101391.78;5060193;28;45343;-67
2023/04/07 09:17:33;;;;;;;;;22.25;18.50;;;;;13.26;50.77;101394.34;5060496;28;45486;-67
2023/04/07 09:19:59;;;;;;;;;18.75;16.75;;;;;13.32;50.74;101392.47;5059831;28;45332;-68
2023/04/07 09:22:38;;;;;;;;;20.75;18.50;;;;;13.38;50.77;101385.38;5060117;28;46325;-68
2023/04/07 09:25:28;;;;;;;;;10.75;9.00;;;;;13.47;50.70;101401.06;5059880;28;45224;-67
2023/04/07 09:28:04;;;;;;;;;24.25;15.75;;;;;13.57;51.00;101400.03;5060231;28;45234;-67
2023/04/07 09:30:31;;;;;;;;;17.00;16.00;;;;;13.64;50.99;101396.38;5059923;28;45334;-67
2023/04/07 09:32:58;;;;;;;;;19.75;17.25;;;;;13.73;50.99;101394.50;5059478;28;45240;-67
2023/04/07 09:35:24;;;;;;;;;18.00;17.00;;;;;13.82;50.76;101403.13;5059958;28;45305;-67
2023/04/07 09:38:02;;;;;;;;;16.50;14.00;;;;;13.91;50.87;101396.81;5060170;28;45322;-68
2023/04/07 09:40:27;;;;;;;;;17.75;16.00;;;;;13.95;50.52;101400.28;5061150;28;45510;-67
2023/04/07 09:42:53;;;;;;;;;14.50;14.00;;;;;14.05;50.44;101406.25;5092525;27;46118;-67
2023/04/07 09:45:30;;;;;;;;;18.50;17.25;;;;;14.13;50.78;101393.78;5059969;28;45509;-67
2023/04/07 09:47:56;;;;;;;;;11.25;11.00;;;;;14.27;50.80;101397.03;5060052;28;45577;-67
2023/04/07 09:50:36;;;;;;;;;11.75;9.00;;;;;14.43;50.57;101399.38;5058308;28;45584;-67
2023/04/07 09:53:03;;;;;;;;;9.75;8.50;;;;;14.56;50.31;101392.06;5059936;28;45397;-67
2023/04/07 09:55:29;;;;;;;;;9.00;7.50;;;;;14.73;50.76;101394.38;5058389;28;45344;-67
2023/04/07 09:57:55;;;;;;;;;9.00;8.00;;;;;14.88;50.20;101387.91;5059939;28;45165;-67
2023/04/07 10:00:21;;;;;;;;;11.00;9.00;;;;;15.06;50.31;101395.44;5059653;28;45220;-67
2023/04/07 10:02:46;;;;;;;;;11.25;8.50;;;;;15.21;50.50;101396.88;5059677;28;45398;-67
2023/04/07 10:05:12;;;;;;;;;8.00;7.50;;;;;15.34;49.98;101397.44;5059893;28;45213;-67
2023/04/07 10:07:38;;;;;;;;;9.25;7.25;;;;;15.45;50.19;101397.19;5060016;28;45254;-67
2023/04/07 10:10:04;;;;;;;;;10.50;7.25;;;;;15.58;50.06;101396.00;5059752;28;45512;-67
2023/04/07 10:12:32;;;;;;;;;11.25;9.00;;;;;15.71;49.91;101393.91;5063005;28;45465;-67
2023/04/07 10:15:03;;;;;;;;;11.50;10.00;;;;;15.84;49.86;101393.63;5062998;28;45268;-67
2023/04/07 10:17:31;;;;;;;;;10.75;10.75;;;;;15.96;49.54;101401.28;5063358;28;45298;-67
2023/04/07 10:19:58;;;;;;;;;7.00;6.00;;;;;16.09;49.57;101393.84;5062599;28;45357;-67
2023/04/07 10:22:26;;;;;;;;;6.75;6.50;;;;;16.22;49.64;101397.88;5062974;28;45661;-67
2023/04/07 10:25:24;;;;;;;;;7.00;5.75;;;;;16.42;49.45;101386.72;5062833;28;45444;-67
2023/04/07 10:27:55;;;;;;;;;7.75;5.25;;;;;16.58;49.19;101386.31;5029064;28;45382;-67
2023/04/07 10:30:25;;;;;;;;;6.50;6.00;;;;;16.80;49.39;101388.31;5062953;28;45469;-67
2023/04/07 10:32:53;;;;;;;;;5.00;5.00;;;;;17.03;49.03;101391.19;5062367;28;47332;-67
2023/04/07 10:35:18;;;;;;;;;6.25;3.00;;;;;17.21;48.83;101383.56;5062749;28;45435;-67
2023/04/07 10:38:05;;;;;;;;;5.75;5.50;;;;;17.43;48.94;101386.38;5062780;28;45273;-67
2023/04/07 10:40:31;;;;;;;;;2.25;2.25;;;;;17.54;48.92;101389.53;5062562;28;45564;-67
2023/04/07 10:42:56;;;;;;;;;4.00;4.00;;;;;17.64;48.49;101390.13;5062839;28;45953;-67
2023/04/07 10:45:54;;;;;;;;;4.25;3.75;;;;;17.73;47.86;101388.94;5062654;28;45230;-67
2023/04/07 10:48:20;;;;;;;;;4.00;4.00;;;;;17.78;48.33;101394.97;5062524;28;45244;-66
2023/04/07 10:51:07;;;;;;;;;9.25;5.75;;;;;17.82;47.88;101385.09;5062526;28;45315;-67
2023/04/07 10:53:35;;;;;;;;;6.00;6.00;;;;;17.85;47.69;101390.31;5062441;28;46195;-67
2023/04/07 10:56:01;;;;;;;;;8.00;5.50;;;;;17.85;47.54;101388.53;5061111;28;45282;-67
2023/04/07 10:58:30;;;;;;;;;6.75;6.75;;;;;17.84;47.24;101384.13;5061335;28;45210;-66
2023/04/07 11:00:56;;;;;;;;;9.00;7.25;;;;;17.80;47.00;101384.31;5062669;28;45311;-67
2023/04/07 11:03:21;;;;;;;;;11.00;5.25;;;;;17.73;46.46;101380.09;5061949;28;45321;-67
2023/04/07 11:05:47;;;;;;;;;5.00;5.00;;;;;17.67;46.61;101387.38;5062644;28;45252;-67
2023/04/07 11:08:12;;;;;;;;;10.00;8.50;;;;;17.61;46.47;101376.06;5062454;28;45355;-67
2023/04/07 11:10:37;;;;;;;;;10.75;6.00;;;;;17.60;46.42;101375.19;5062424;28;45412;-67
2023/04/07 11:13:06;;;;;;;;;5.75;5.50;;;;;17.63;46.52;101379.53;5062030;28;46229;-67
2023/04/07 11:15:34;;;;;;;;;4.25;3.00;;;;;17.73;46.49;101369.47;5062508;28;45275;-67
2023/04/07 11:18:15;;;;;;;;;8.00;7.00;;;;;17.91;46.55;101368.84;5060753;28;45368;-67